createdAt,value
2022-11-26T00:09:47.098Z,0.0
2022-11-26T00:14:53.475Z,0.0
2022-11-26T00:21:12.027Z,0.0
2022-11-26T00:25:16.271Z,0.0
2022-11-26T00:30:46.801Z,0.0
2022-11-26T00:35:29.204Z,0.0
2022-11-26T00:40:35.611Z,0.0
2022-11-26T00:45:46.001Z,0.0
2022-11-26T00:50:38.332Z,0.0
2022-11-26T00:55:57.758Z,0.0
2022-11-26T01:01:01.186Z,0.0
2022-11-26T01:06:21.720Z,0.0
2022-11-26T01:11:04.172Z,0.0
2022-11-26T01:16:44.679Z,0.0
2022-11-26T01:21:26.919Z,0.0
2022-11-26T01:26:33.341Z,0.0
2022-11-26T01:31:39.846Z,0.0
2022-11-26T01:37:00.139Z,0.0
2022-11-26T01:41:52.513Z,0.0
2022-11-26T01:52:29.478Z,0.0
2022-11-26T01:57:11.874Z,0.0
2022-11-26T02:02:22.389Z,0.0
2022-11-26T02:07:27.810Z,0.0
2022-11-26T02:12:38.175Z,0.0
2022-11-26T02:17:30.506Z,0.0
2022-11-26T02:22:46.943Z,0.0
2022-11-26T02:27:56.967Z,0.0
2022-11-26T02:33:03.492Z,0.0
2022-11-26T02:38:09.926Z,0.0
2022-11-26T02:43:30.358Z,0.0
2022-11-26T02:48:22.693Z,0.0
2022-11-26T02:53:29.063Z,0.0
2022-11-26T02:58:35.483Z,0.0
2022-11-26T03:03:41.878Z,0.0
2022-11-26T03:08:48.253Z,0.0
2022-11-26T03:13:54.788Z,0.0
2022-11-26T03:19:35.254Z,0.0
2022-11-26T03:24:42.680Z,0.0
2022-11-26T03:29:49.173Z,0.0
2022-11-26T03:34:55.534Z,0.0
2022-11-26T03:40:01.949Z,0.0
2022-11-26T03:45:12.643Z,0.0
2022-11-26T03:50:19.067Z,0.0
2022-11-26T03:55:53.600Z,0.0
2022-11-26T04:00:52.013Z,0.0
2022-11-26T04:05:38.344Z,0.0
2022-11-26T04:10:34.742Z,0.0
2022-11-26T04:15:51.100Z,0.0
2022-11-26T04:21:41.602Z,0.0
2022-11-26T04:26:03.871Z,0.0
2022-11-26T04:31:00.233Z,0.0
2022-11-26T04:37:42.702Z,0.0
2022-11-26T04:42:50.213Z,0.0
2022-11-26T04:47:56.617Z,0.0
2022-11-26T04:53:07.036Z,0.0
2022-11-26T04:57:59.364Z,0.0
2022-11-26T05:03:15.757Z,0.0
2022-11-26T05:08:26.160Z,0.0
2022-11-26T05:13:48.550Z,0.0
2022-11-26T05:18:25.016Z,0.0
2022-11-26T05:23:41.476Z,0.0
2022-11-26T05:28:47.836Z,0.0
2022-11-26T05:33:54.257Z,0.0
2022-11-26T05:39:00.625Z,0.0
2022-11-26T05:44:06.986Z,0.0
2022-11-26T05:57:54.311Z,0.0
2022-11-26T06:21:33.303Z,0.0
2022-11-26T06:23:31.498Z,0.0
2022-11-26T06:25:31.526Z,0.0
2022-11-26T06:36:00.306Z,0.0
2022-11-26T06:40:46.661Z,4.0
2022-11-26T06:41:34.762Z,0.0
2022-11-26T06:47:05.141Z,8.0
2022-11-26T06:50:59.436Z,16.0
2022-11-26T06:56:14.848Z,36.0
2022-11-26T07:02:12.190Z,64.0
2022-11-26T07:06:55.532Z,108.0
2022-11-26T07:11:51.947Z,144.0
2022-11-26T07:17:08.411Z,184.0
2022-11-26T07:22:04.765Z,248.0
2022-11-26T07:27:21.833Z,316.0
2022-11-26T07:32:28.186Z,404.0
2022-11-26T07:37:34.586Z,516.0
2022-11-26T07:42:40.979Z,584.0
2022-11-26T07:47:37.312Z,692.0
2022-11-26T07:52:53.809Z,796.0
2022-11-26T07:58:24.365Z,932.0
2022-11-26T08:03:26.760Z,1132.0
2022-11-26T08:08:33.151Z,1168.0
2022-11-26T08:13:09.468Z,1580.0
2022-11-26T08:18:26.493Z,1668.0
2022-11-26T08:24:16.910Z,1684.0
2022-11-26T08:44:28.836Z,2300.0
2022-11-26T09:01:31.785Z,2228.0
2022-11-26T09:06:49.147Z,2412.0
2022-11-26T09:11:56.633Z,1568.0
2022-11-26T09:17:03.272Z,1660.0
2022-11-26T09:22:29.668Z,1856.0
2022-11-26T09:27:16.075Z,2864.0
2022-11-26T09:32:33.680Z,3232.0
2022-11-26T09:37:27.861Z,3056.0
2022-11-26T09:42:55.274Z,2728.0
2022-11-26T09:47:32.162Z,2196.0
2022-11-26T09:52:48.523Z,2260.0
2022-11-26T10:02:06.397Z,4680.0
2022-11-26T10:07:29.950Z,3216.0
2022-11-26T10:12:24.998Z,3336.0
2022-11-26T10:17:22.648Z,2892.0
2022-11-26T10:22:29.134Z,5080.0
2022-11-26T10:27:35.649Z,4756.0
2022-11-26T10:32:42.025Z,3704.0
2022-11-26T10:37:37.363Z,4708.0
2022-11-26T10:42:53.788Z,4784.0
2022-11-26T10:48:39.234Z,4424.0
2022-11-26T10:54:45.002Z,8148.0
2022-11-26T10:59:28.477Z,5496.0
2022-11-26T11:04:34.919Z,5644.0
2022-11-26T11:09:41.294Z,6312.0
2022-11-26T11:19:55.654Z,8692.0
2022-11-26T11:25:01.986Z,16288.0
2022-11-26T11:30:08.383Z,14032.0
2022-11-26T11:35:04.768Z,12080.0
2022-11-26T11:40:23.320Z,12188.0
2022-11-26T11:45:29.778Z,14448.0
2022-11-26T11:50:36.220Z,11072.0
2022-11-26T11:55:42.575Z,10156.0
2022-11-26T12:00:38.949Z,9376.0
2022-11-26T12:05:55.478Z,9796.0
2022-11-26T12:11:01.866Z,9632.0
2022-11-26T12:16:08.331Z,9368.0
2022-11-26T12:21:14.755Z,8252.0
2022-11-26T12:26:55.184Z,7564.0
2022-11-26T12:32:02.628Z,6536.0
2022-11-26T12:37:32.132Z,5852.0
2022-11-26T12:42:18.506Z,5344.0
2022-11-26T12:47:24.872Z,4780.0
2022-11-26T12:52:35.298Z,4952.0
2022-11-26T12:57:39.339Z,5028.0
2022-11-26T13:02:44.793Z,4692.0
2022-11-26T13:08:16.254Z,4640.0
2022-11-26T13:12:48.533Z,4256.0
2022-11-26T13:18:42.020Z,3568.0
2022-11-26T13:23:49.443Z,3196.0
2022-11-26T13:28:55.774Z,2748.0
2022-11-26T13:34:02.161Z,2464.0
2022-11-26T13:38:58.662Z,2404.0
2022-11-26T13:44:15.067Z,2204.0
2022-11-26T13:49:11.471Z,1952.0
2022-11-26T13:54:17.881Z,1784.0
2022-11-26T14:04:41.157Z,1812.0
2022-11-26T14:09:47.100Z,2048.0
2022-11-26T14:14:53.451Z,2140.0
2022-11-26T14:19:49.810Z,2112.0
2022-11-26T14:25:14.255Z,3172.0
2022-11-26T14:30:12.716Z,1864.0
2022-11-26T14:35:19.094Z,1336.0
2022-11-26T14:40:25.498Z,1144.0
2022-11-26T14:45:21.951Z,1048.0
2022-11-26T14:50:38.343Z,956.0
2022-11-26T14:56:06.358Z,884.0
2022-11-26T15:00:52.782Z,824.0
2022-11-26T15:05:59.169Z,748.0
2022-11-26T15:11:05.567Z,604.0
2022-11-26T15:16:48.885Z,376.0
2022-11-26T15:21:53.420Z,208.0
2022-11-26T15:26:59.882Z,112.0
2022-11-26T15:32:06.403Z,60.0
2022-11-26T15:37:32.792Z,32.0
2022-11-26T15:42:19.137Z,16.0
2022-11-26T15:47:25.541Z,4.0
2022-11-26T15:52:32.023Z,4.0
2022-11-26T15:57:28.477Z,0.0
2022-11-26T16:02:45.026Z,0.0
2022-11-26T16:07:41.327Z,0.0
2022-11-26T16:12:57.645Z,0.0
2022-11-26T16:18:04.104Z,0.0
2022-11-26T16:23:10.551Z,0.0
2022-11-26T16:28:16.906Z,0.0
2022-11-26T16:33:23.313Z,0.0
2022-11-26T16:38:52.700Z,0.0
2022-11-26T16:43:40.054Z,0.0
2022-11-26T16:48:56.518Z,0.0
2022-11-26T16:53:51.911Z,0.0
2022-11-26T16:58:58.280Z,0.0
2022-11-26T17:04:18.707Z,0.0
2022-11-26T17:09:11.135Z,0.0
2022-11-26T17:14:17.537Z,0.0
2022-11-26T17:19:23.948Z,0.0
2022-11-26T17:24:31.683Z,0.0
2022-11-26T17:29:41.161Z,0.0
2022-11-26T17:34:43.428Z,0.0
2022-11-26T17:39:49.795Z,0.0
2022-11-26T17:44:56.173Z,0.0
2022-11-26T17:50:02.655Z,0.0
2022-11-26T17:55:09.001Z,0.0
2022-11-26T18:00:35.526Z,0.0
2022-11-26T18:05:21.903Z,0.0
2022-11-26T18:10:48.306Z,0.0
2022-11-26T18:15:37.709Z,0.0
2022-11-26T18:20:48.145Z,0.0
2022-11-26T18:25:52.079Z,0.0
2022-11-26T18:31:26.681Z,0.0
2022-11-26T18:36:07.036Z,0.0
2022-11-26T18:41:03.409Z,0.0
2022-11-26T18:46:43.896Z,0.0
2022-11-26T18:51:54.302Z,0.0
2022-11-26T18:56:36.624Z,0.0
2022-11-26T19:01:39.061Z,0.0
2022-11-26T19:06:45.359Z,0.0
2022-11-26T19:11:51.778Z,0.0
2022-11-26T19:16:58.291Z,0.0
2022-11-26T19:22:04.555Z,0.0
2022-11-26T19:27:10.984Z,0.0
2022-11-26T19:32:17.333Z,0.0
2022-11-26T19:37:23.710Z,0.0
2022-11-26T19:42:30.236Z,0.0
2022-11-26T19:47:36.689Z,0.0
2022-11-26T19:53:03.234Z,0.0
2022-11-26T19:58:33.673Z,0.0
2022-11-26T20:02:56.033Z,0.0
2022-11-26T20:08:02.346Z,0.0
2022-11-26T20:13:08.876Z,0.0
2022-11-26T20:18:05.259Z,0.0
2022-11-26T20:23:11.624Z,0.0
2022-11-26T20:28:28.084Z,0.0
2022-11-26T20:33:24.493Z,0.0
2022-11-26T20:38:54.914Z,0.0
2022-11-26T20:43:37.240Z,0.0
2022-11-26T20:49:42.479Z,0.0
2022-11-26T20:53:50.073Z,0.0
2022-11-26T20:59:09.516Z,0.0
2022-11-26T21:04:12.915Z,0.0
2022-11-26T21:09:19.441Z,0.0
2022-11-26T21:14:27.923Z,0.0
2022-11-26T21:19:54.383Z,0.0
2022-11-26T21:24:40.749Z,0.0
2022-11-26T21:30:07.154Z,0.0
2022-11-26T21:36:17.703Z,0.0
2022-11-26T21:40:20.008Z,0.0
2022-11-26T21:45:06.319Z,0.0
2022-11-26T21:50:12.711Z,0.0
2022-11-26T21:55:19.132Z,0.0
2022-11-26T22:00:45.642Z,0.0
2022-11-26T22:05:21.944Z,0.0
2022-11-26T22:10:32.016Z,0.0
2022-11-26T22:15:44.912Z,0.0
2022-11-26T22:20:41.241Z,0.0
2022-11-26T22:26:57.716Z,0.0
2022-11-26T22:31:04.036Z,0.0
2022-11-26T22:36:30.542Z,0.0
2022-11-26T22:41:40.908Z,0.0
2022-11-26T22:46:23.349Z,0.0
2022-11-26T22:51:29.639Z,0.0
2022-11-26T22:57:00.132Z,0.0
2022-11-26T23:01:42.488Z,0.0
2022-11-26T23:06:48.873Z,0.0
2022-11-26T23:12:15.308Z,0.0
2022-11-26T23:17:01.637Z,0.0
2022-11-26T23:22:08.148Z,0.0
2022-11-26T23:27:14.645Z,0.0
2022-11-26T23:33:21.164Z,0.0
2022-11-26T23:37:27.413Z,0.0
2022-11-26T23:42:33.798Z,0.0
2022-11-26T23:47:40.181Z,0.0
2022-11-26T23:52:46.588Z,0.0
2022-11-26T23:58:12.968Z,0.0
